Aeroporto :
LOGIN :

Iscrizione | Disclaimer

   EN    FR    IT 

 










Sommario :    VFR   VFR Marginale   IFR   IFR Intensivo   IFR Molto Intensivo
Visibilità : 
Base nubi : 
>= 8 km
>= 3000ft
5 / 8 km
1000 / 3000 ft
1500m / 5 km
500 / 1000 ft
800 / 1500m
200 / 500 ft
< 800m
< 200 ft
Simboli :   Temporali  Nebbia  Neve Forte  Precipitazioni Forti  Vento > 20 kt
SIGMETs :   Varie  Temporali  Ghiacco  Turbolenza  Onda orograficha  Ceneri Vulcaniche






- Altitudine del aeroporto : 284 ft


EGUW - RAF Wattisham

ULTIMO METAR :
  • 190650Z 02014KT 9999 SCT020 13/09 Q1019 BECMG SCT025 RMK WHT BECMG BLU

METARs OBSOLETI :
  • 190620Z AUTO 02012KT 9999 FEW001/// SCT011/// 13/10 Q1019
  • 190550Z 03011KT 9999 BKN012 12/10 Q1019 RMK GRN
  • 190520Z AUTO 02010KT 9999 OVC009/// 12/10 Q1019
  • 190450Z 02011KT 9999 BKN022 12/10 Q1019 RMK WHT
  • 190420Z AUTO 02009KT 9999 OVC013/// 12/10 Q1019
  • 190350Z AUTO 01008KT 9999 OVC010/// 12/10 Q1019
  • 190320Z AUTO 01010KT 9999 BKN007/// BKN017/// 12/11 Q1018
  • 190250Z AUTO 36010KT 9999 BR OVC006/// 12/11 Q1018
  • 190220Z AUTO 01007KT 9000 BR OVC006/// 12/12 Q1018

TAF TAF EGUW
Valido dal 19 a 07 ore il 19 a 15 ore UTC


190555Z 1907/1915 01010KT 9999 SCT020
TEMPO 1907/1908 SCT012
BECMG 1909/1912 SCT030



MetMap, La meteo Aeronautica in un colpo d'occhio ! - Copyright ORBIFLY Dicembre 2007 - Disclaimer

ORBIFLY MET'MAP TEAM :

Programmazione e sviluppo : Alexandra Zaïnal
Concezione : Baudouin d'Aumeries
Supporto tecnico e logistico : Manuel Goepfert
Aiuto : Marc-Olivier Méhu
Aiuto per la traduzione : Arnaldo La Scala




FONTI E CREDITI :

   NOAA